Aérodrome :
LOGIN :

S'inscrire | Disclaimer

   EN    FR    IT 

 










Légende :    VFR   VFR Marginal   IFR   IFR Intensif   IFR Très Intensif
Visi : 
Plafond : 
>= 8 km
>= 3000ft
5 à 8 km
1000 à 3000 ft
1500m à 5 km
500 à 1000 ft
800 à 1500m
200 à 500 ft
< 800m
< 200 ft
Symboles :   Orages  Brouillard  Fortes neiges  Fortes précipitations  Vent > 20 kt
SIGMETs :   Divers  Orages  Givrage  Turbulence  Onde Orograph.  Cendres Volcan.







- Altitude de l'aérodrome : 333 ft


LIPL - Ghedi Brescia (Mil)

DERNIER METAR :
  • 222055Z 09002KT CAVOK 24/21 Q1020 RMK SKC VIS MIN 9999 WIND THR31 07002KT WIND THR13 09002KT BLU

METARs EXPIRÉS :
  • 221955Z 07002KT CAVOK 25/20 Q1020 RMK SKC VIS MIN 9999 WIND THR31 08002KT WIND THR13 03002KT BLU
  • 221855Z 13003KT CAVOK 25/20 Q1020 RMK FEW FEW090 VIS MIN 9999 WIND THR31 13003KT WIND THR13 13003KT BLU

TAF TAF LIPL
Valide du 22 à 21h jusqu'au 23 à 06h UTC


222000Z 2221/2306 11005KT 9999 FEW080
TEMPO 2222/2306 5000 TSRA FEW025CB SCT030
Pas de NOTAMs connus pour ce terrain.



MET'MAP, la Météo Aéronautique d'un coup d'oeil ! - Copyright ORBIFLY Décembre 2007 - Disclaimer

ORBIFLY MET'MAP TEAM :

Programmation & Développement : Alexandra Zaïnal
Conception & Développement : Baudouin d'Aumeries
Co-Programmation & Développement : Marc-Olivier Méhu
Soutien technique & logistique : Manuel Goepfert

Contact : metmap@orbifly.com




SOURCES & CREDITS :

   NOAA